Data at: 1402 UTC 23 Jan 2018

METAR for:KMNH (Mountain Pass Arpt, CO, US)
Text:KMNH 231348Z AUTO 23006KT 10SM CLR M10/M17 A3015 RMK AO2
Temperature:-10.0°C ( 14°F)
Dewpoint:-17.0°C ( 1°F) [RH = 57%]
Pressure (altimeter):30.15 inches Hg (1021.1 mb)
Winds:from the SW (230 degrees) at 7 MPH (6 knots; 3.1 m/s)
Visibility:10 or more sm (16+ km)
Ceiling:at least 12,000 feet AGL
Clouds:sky clear below 12,000 feet AGL
QC Flag:automated observation with no human augmentation
Text:KMNH 231330Z AUTO 24006KT 10SM CLR M07/M16 A3015 RMK AO2
Temperature: -7.0°C ( 19°F)
Dewpoint:-16.0°C ( 3°F) [RH = 49%]
Pressure (altimeter):30.15 inches Hg (1021.1 mb)
Winds:from the WSW (240 degrees) at 7 MPH (6 knots; 3.1 m/s)
Visibility:10 or more sm (16+ km)
Ceiling:at least 12,000 feet AGL
Clouds:sky clear below 12,000 feet AGL
QC Flag:automated observation with no human augmentation
Text:KMNH 231312Z AUTO 25005KT 10SM CLR M08/M16 A3014 RMK AO2
Temperature: -8.0°C ( 18°F)
Dewpoint:-16.0°C ( 3°F) [RH = 53%]
Pressure (altimeter):30.14 inches Hg (1020.7 mb)
Winds:from the WSW (250 degrees) at 6 MPH (5 knots; 2.6 m/s)
Visibility:10 or more sm (16+ km)
Ceiling:at least 12,000 feet AGL
Clouds:sky clear below 12,000 feet AGL
QC Flag:automated observation with no human augmentation
Text:KMNH 231248Z AUTO 24007KT 10SM CLR M09/M17 A3014 RMK AO2
Temperature: -9.0°C ( 16°F)
Dewpoint:-17.0°C ( 1°F) [RH = 52%]
Pressure (altimeter):30.14 inches Hg (1020.7 mb)
Winds:from the WSW (240 degrees) at 8 MPH (7 knots; 3.6 m/s)
Visibility:10 or more sm (16+ km)
Ceiling:at least 12,000 feet AGL
Clouds:sky clear below 12,000 feet AGL
QC Flag:automated observation with no human augmentation
Text:KMNH 231230Z AUTO 24006KT 10SM CLR M08/M16 A3014 RMK AO2
Temperature: -8.0°C ( 18°F)
Dewpoint:-16.0°C ( 3°F) [RH = 53%]
Pressure (altimeter):30.14 inches Hg (1020.7 mb)
Winds:from the WSW (240 degrees) at 7 MPH (6 knots; 3.1 m/s)
Visibility:10 or more sm (16+ km)
Ceiling:at least 12,000 feet AGL
Clouds:sky clear below 12,000 feet AGL
QC Flag:automated observation with no human augmentation
Text:KMNH 231212Z AUTO 25005KT 10SM CLR M09/M17 A3014 RMK AO2
Temperature: -9.0°C ( 16°F)
Dewpoint:-17.0°C ( 1°F) [RH = 52%]
Pressure (altimeter):30.14 inches Hg (1020.7 mb)
Winds:from the WSW (250 degrees) at 6 MPH (5 knots; 2.6 m/s)
Visibility:10 or more sm (16+ km)
Ceiling:at least 12,000 feet AGL
Clouds:sky clear below 12,000 feet AGL
QC Flag:automated observation with no human augmentation
Text:KMNH 231153Z AUTO 26005KT 10SM CLR M10/M17 A3013 RMK AO2
Temperature:-10.0°C ( 14°F)
Dewpoint:-17.0°C ( 1°F) [RH = 57%]
Pressure (altimeter):30.13 inches Hg (1020.4 mb)
Winds:from the W (260 degrees) at 6 MPH (5 knots; 2.6 m/s)
Visibility:10 or more sm (16+ km)
Ceiling:at least 12,000 feet AGL
Clouds:sky clear below 12,000 feet AGL
QC Flag:automated observation with no human augmentation
Text:KMNH 231129Z AUTO 27006KT 10SM CLR M11/M18 A3013 RMK AO2
Temperature:-11.0°C ( 12°F)
Dewpoint:-18.0°C ( -0°F) [RH = 56%]
Pressure (altimeter):30.13 inches Hg (1020.4 mb)
Winds:from the W (270 degrees) at 7 MPH (6 knots; 3.1 m/s)
Visibility:10 or more sm (16+ km)
Ceiling:at least 12,000 feet AGL
Clouds:sky clear below 12,000 feet AGL
QC Flag:automated observation with no human augmentation
Text:KMNH 231111Z AUTO 27006KT 10SM CLR M11/M18 A3013 RMK AO2
Temperature:-11.0°C ( 12°F)
Dewpoint:-18.0°C ( -0°F) [RH = 56%]
Pressure (altimeter):30.13 inches Hg (1020.4 mb)
Winds:from the W (270 degrees) at 7 MPH (6 knots; 3.1 m/s)
Visibility:10 or more sm (16+ km)
Ceiling:at least 12,000 feet AGL
Clouds:sky clear below 12,000 feet AGL
QC Flag:automated observation with no human augmentation
Text:KMNH 231048Z AUTO 25006KT 10SM CLR M10/M17 A3013 RMK AO2
Temperature:-10.0°C ( 14°F)
Dewpoint:-17.0°C ( 1°F) [RH = 57%]
Pressure (altimeter):30.13 inches Hg (1020.4 mb)
Winds:from the WSW (250 degrees) at 7 MPH (6 knots; 3.1 m/s)
Visibility:10 or more sm (16+ km)
Ceiling:at least 12,000 feet AGL
Clouds:sky clear below 12,000 feet AGL
QC Flag:automated observation with no human augmentation
Text:KMNH 231030Z AUTO 21006KT 10SM CLR M11/M18 A3012 RMK AO2
Temperature:-11.0°C ( 12°F)
Dewpoint:-18.0°C ( -0°F) [RH = 56%]
Pressure (altimeter):30.12 inches Hg (1020.1 mb)
Winds:from the SSW (210 degrees) at 7 MPH (6 knots; 3.1 m/s)
Visibility:10 or more sm (16+ km)
Ceiling:at least 12,000 feet AGL
Clouds:sky clear below 12,000 feet AGL
QC Flag:automated observation with no human augmentation
Text:KMNH 231012Z AUTO 21007KT 10SM CLR M10/M18 A3012 RMK AO2
Temperature:-10.0°C ( 14°F)
Dewpoint:-18.0°C ( -0°F) [RH = 52%]
Pressure (altimeter):30.12 inches Hg (1020.1 mb)
Winds:from the SSW (210 degrees) at 8 MPH (7 knots; 3.6 m/s)
Visibility:10 or more sm (16+ km)
Ceiling:at least 12,000 feet AGL
Clouds:sky clear below 12,000 feet AGL
QC Flag:automated observation with no human augmentation
Text:KMNH 230948Z AUTO 21007KT 10SM CLR M07/M17 A3012 RMK AO2
Temperature: -7.0°C ( 19°F)
Dewpoint:-17.0°C ( 1°F) [RH = 45%]
Pressure (altimeter):30.12 inches Hg (1020.1 mb)
Winds:from the SSW (210 degrees) at 8 MPH (7 knots; 3.6 m/s)
Visibility:10 or more sm (16+ km)
Ceiling:at least 12,000 feet AGL
Clouds:sky clear below 12,000 feet AGL
QC Flag:automated observation with no human augmentation
Text:KMNH 230930Z AUTO 20008KT 10SM CLR M10/M17 A3012 RMK AO2
Temperature:-10.0°C ( 14°F)
Dewpoint:-17.0°C ( 1°F) [RH = 57%]
Pressure (altimeter):30.12 inches Hg (1020.1 mb)
Winds:from the SSW (200 degrees) at 9 MPH (8 knots; 4.1 m/s)
Visibility:10 or more sm (16+ km)
Ceiling:at least 12,000 feet AGL
Clouds:sky clear below 12,000 feet AGL
QC Flag:automated observation with no human augmentation
Text:KMNH 230912Z AUTO 20007KT 10SM CLR M07/M16 A3011 RMK AO2
Temperature: -7.0°C ( 19°F)
Dewpoint:-16.0°C ( 3°F) [RH = 49%]
Pressure (altimeter):30.11 inches Hg (1019.7 mb)
Winds:from the SSW (200 degrees) at 8 MPH (7 knots; 3.6 m/s)
Visibility:10 or more sm (16+ km)
Ceiling:at least 12,000 feet AGL
Clouds:sky clear below 12,000 feet AGL
QC Flag:automated observation with no human augmentation
Text:KMNH 230850Z AUTO 21008KT 10SM CLR M06/M16 A3011 RMK AO2
Temperature: -6.0°C ( 21°F)
Dewpoint:-16.0°C ( 3°F) [RH = 45%]
Pressure (altimeter):30.11 inches Hg (1019.7 mb)
Winds:from the SSW (210 degrees) at 9 MPH (8 knots; 4.1 m/s)
Visibility:10 or more sm (16+ km)
Ceiling:at least 12,000 feet AGL
Clouds:sky clear below 12,000 feet AGL
QC Flag:automated observation with no human augmentation
Text:KMNH 230832Z AUTO 21008KT 10SM CLR M06/M16 A3011 RMK AO2
Temperature: -6.0°C ( 21°F)
Dewpoint:-16.0°C ( 3°F) [RH = 45%]
Pressure (altimeter):30.11 inches Hg (1019.7 mb)
Winds:from the SSW (210 degrees) at 9 MPH (8 knots; 4.1 m/s)
Visibility:10 or more sm (16+ km)
Ceiling:at least 12,000 feet AGL
Clouds:sky clear below 12,000 feet AGL
QC Flag:automated observation with no human augmentation
Text:KMNH 230808Z AUTO 19008KT 10SM SCT065 SCT110 M07/M16 A3009 RMK AO2
Temperature: -7.0°C ( 19°F)
Dewpoint:-16.0°C ( 3°F) [RH = 49%]
Pressure (altimeter):30.09 inches Hg (1019.0 mb)
Winds:from the S (190 degrees) at 9 MPH (8 knots; 4.1 m/s)
Visibility:10 or more sm (16+ km)
Ceiling:at least 12,000 feet AGL
Clouds: scattered clouds at 6500 feet AGL, scattered clouds at 11000 feet AGL
QC Flag:automated observation with no human augmentation
Text:KMNH 230748Z AUTO 20006KT 10SM SCT065 BKN110 M06/M15 A3010 RMK AO2
Temperature: -6.0°C ( 21°F)
Dewpoint:-15.0°C ( 5°F) [RH = 49%]
Pressure (altimeter):30.10 inches Hg (1019.4 mb)
Winds:from the SSW (200 degrees) at 7 MPH (6 knots; 3.1 m/s)
Visibility:10 or more sm (16+ km)
Ceiling:11000 feet AGL
Clouds: scattered clouds at 6500 feet AGL, broken clouds at 11000 feet AGL
QC Flag:automated observation with no human augmentation
Text:KMNH 230730Z AUTO 19008KT 10SM BKN100 BKN120 M05/M15 A3009 RMK AO2
Temperature: -5.0°C ( 23°F)
Dewpoint:-15.0°C ( 5°F) [RH = 45%]
Pressure (altimeter):30.09 inches Hg (1019.0 mb)
Winds:from the S (190 degrees) at 9 MPH (8 knots; 4.1 m/s)
Visibility:10 or more sm (16+ km)
Ceiling:10000 feet AGL
Clouds: broken clouds at 10000 feet AGL, broken clouds at 12000 feet AGL
QC Flag:automated observation with no human augmentation
Text:KMNH 230712Z AUTO 20006KT 10SM OVC090 M03/M15 A3009 RMK AO2
Temperature: -3.0°C ( 27°F)
Dewpoint:-15.0°C ( 5°F) [RH = 39%]
Pressure (altimeter):30.09 inches Hg (1019.0 mb)
Winds:from the SSW (200 degrees) at 7 MPH (6 knots; 3.1 m/s)
Visibility:10 or more sm (16+ km)
Ceiling:9000 feet AGL
Clouds: overcast cloud deck at 9000 feet AGL
QC Flag:automated observation with no human augmentation
Text:KMNH 230649Z AUTO 20008KT 10SM OVC090 M03/M15 A3009 RMK AO2
Temperature: -3.0°C ( 27°F)
Dewpoint:-15.0°C ( 5°F) [RH = 39%]
Pressure (altimeter):30.09 inches Hg (1019.0 mb)
Winds:from the SSW (200 degrees) at 9 MPH (8 knots; 4.1 m/s)
Visibility:10 or more sm (16+ km)
Ceiling:9000 feet AGL
Clouds: overcast cloud deck at 9000 feet AGL
QC Flag:automated observation with no human augmentation
Text:KMNH 230632Z AUTO 21007KT 10SM BKN090 OVC110 M04/M14 A3009 RMK AO2
Temperature: -4.0°C ( 25°F)
Dewpoint:-14.0°C ( 7°F) [RH = 46%]
Pressure (altimeter):30.09 inches Hg (1019.0 mb)
Winds:from the SSW (210 degrees) at 8 MPH (7 knots; 3.6 m/s)
Visibility:10 or more sm (16+ km)
Ceiling:9000 feet AGL
Clouds: broken clouds at 9000 feet AGL, overcast cloud deck at 11000 feet AGL
QC Flag:automated observation with no human augmentation
Text:KMNH 230608Z AUTO 20007KT 10SM OVC110 M05/M15 A3009 RMK AO2
Temperature: -5.0°C ( 23°F)
Dewpoint:-15.0°C ( 5°F) [RH = 45%]
Pressure (altimeter):30.09 inches Hg (1019.0 mb)
Winds:from the SSW (200 degrees) at 8 MPH (7 knots; 3.6 m/s)
Visibility:10 or more sm (16+ km)
Ceiling:11000 feet AGL
Clouds: overcast cloud deck at 11000 feet AGL
QC Flag:automated observation with no human augmentation
Text:KMNH 230548Z AUTO 20006KT 10SM OVC110 M04/M16 A3009 RMK AO2
Temperature: -4.0°C ( 25°F)
Dewpoint:-16.0°C ( 3°F) [RH = 39%]
Pressure (altimeter):30.09 inches Hg (1019.0 mb)
Winds:from the SSW (200 degrees) at 7 MPH (6 knots; 3.1 m/s)
Visibility:10 or more sm (16+ km)
Ceiling:11000 feet AGL
Clouds: overcast cloud deck at 11000 feet AGL
QC Flag:automated observation with no human augmentation
Text:KMNH 230530Z AUTO 20006KT 10SM OVC090 M05/M16 A3009 RMK AO2
Temperature: -5.0°C ( 23°F)
Dewpoint:-16.0°C ( 3°F) [RH = 42%]
Pressure (altimeter):30.09 inches Hg (1019.0 mb)
Winds:from the SSW (200 degrees) at 7 MPH (6 knots; 3.1 m/s)
Visibility:10 or more sm (16+ km)
Ceiling:9000 feet AGL
Clouds: overcast cloud deck at 9000 feet AGL
QC Flag:automated observation with no human augmentation
Text:KMNH 230512Z AUTO 21005KT 10SM OVC090 M04/M16 A3009 RMK AO2
Temperature: -4.0°C ( 25°F)
Dewpoint:-16.0°C ( 3°F) [RH = 39%]
Pressure (altimeter):30.09 inches Hg (1019.0 mb)
Winds:from the SSW (210 degrees) at 6 MPH (5 knots; 2.6 m/s)
Visibility:10 or more sm (16+ km)
Ceiling:9000 feet AGL
Clouds: overcast cloud deck at 9000 feet AGL
QC Flag:automated observation with no human augmentation
Text:KMNH 230448Z AUTO 18005KT 10SM BKN100 OVC120 M06/M16 A3009 RMK AO2
Temperature: -6.0°C ( 21°F)
Dewpoint:-16.0°C ( 3°F) [RH = 45%]
Pressure (altimeter):30.09 inches Hg (1019.0 mb)
Winds:from the S (180 degrees) at 6 MPH (5 knots; 2.6 m/s)
Visibility:10 or more sm (16+ km)
Ceiling:10000 feet AGL
Clouds: broken clouds at 10000 feet AGL, overcast cloud deck at 12000 feet AGL
QC Flag:automated observation with no human augmentation
Text:KMNH 230430Z AUTO 16003KT 10SM OVC120 M06/M15 A3008 RMK AO2
Temperature: -6.0°C ( 21°F)
Dewpoint:-15.0°C ( 5°F) [RH = 49%]
Pressure (altimeter):30.08 inches Hg (1018.7 mb)
Winds:from the SSE (160 degrees) at 3 MPH (3 knots; 1.5 m/s)
Visibility:10 or more sm (16+ km)
Ceiling:12000 feet AGL
Clouds: overcast cloud deck at 12000 feet AGL
QC Flag:automated observation with no human augmentation
Text:KMNH 230412Z AUTO 16004KT 10SM BKN120 M07/M16 A3008 RMK AO2
Temperature: -7.0°C ( 19°F)
Dewpoint:-16.0°C ( 3°F) [RH = 49%]
Pressure (altimeter):30.08 inches Hg (1018.7 mb)
Winds:from the SSE (160 degrees) at 5 MPH (4 knots; 2.1 m/s)
Visibility:10 or more sm (16+ km)
Ceiling:12000 feet AGL
Clouds: broken clouds at 12000 feet AGL
QC Flag:automated observation with no human augmentation
Text:KMNH 230348Z AUTO 20005KT 10SM CLR M06/M17 A3008 RMK AO2
Temperature: -6.0°C ( 21°F)
Dewpoint:-17.0°C ( 1°F) [RH = 41%]
Pressure (altimeter):30.08 inches Hg (1018.7 mb)
Winds:from the SSW (200 degrees) at 6 MPH (5 knots; 2.6 m/s)
Visibility:10 or more sm (16+ km)
Ceiling:at least 12,000 feet AGL
Clouds:sky clear below 12,000 feet AGL
QC Flag:automated observation with no human augmentation
Text:KMNH 230330Z AUTO 00000KT 10SM CLR M06/M18 A3008 RMK AO2
Temperature: -6.0°C ( 21°F)
Dewpoint:-18.0°C ( -0°F) [RH = 38%]
Pressure (altimeter):30.08 inches Hg (1018.7 mb)
Winds:calm
Visibility:10 or more sm (16+ km)
Ceiling:at least 12,000 feet AGL
Clouds:sky clear below 12,000 feet AGL
QC Flag:automated observation with no human augmentation
Text:KMNH 230312Z AUTO 19005KT 10SM CLR M06/M17 A3008 RMK AO2
Temperature: -6.0°C ( 21°F)
Dewpoint:-17.0°C ( 1°F) [RH = 41%]
Pressure (altimeter):30.08 inches Hg (1018.7 mb)
Winds:from the S (190 degrees) at 6 MPH (5 knots; 2.6 m/s)
Visibility:10 or more sm (16+ km)
Ceiling:at least 12,000 feet AGL
Clouds:sky clear below 12,000 feet AGL
QC Flag:automated observation with no human augmentation
Text:KMNH 230248Z AUTO 17006KT 10SM CLR M08/M17 A3007 RMK AO2
Temperature: -8.0°C ( 18°F)
Dewpoint:-17.0°C ( 1°F) [RH = 48%]
Pressure (altimeter):30.07 inches Hg (1018.4 mb)
Winds:from the S (170 degrees) at 7 MPH (6 knots; 3.1 m/s)
Visibility:10 or more sm (16+ km)
Ceiling:at least 12,000 feet AGL
Clouds:sky clear below 12,000 feet AGL
QC Flag:automated observation with no human augmentation
Text:KMNH 230230Z AUTO 21004KT 10SM CLR M08/M18 A3007 RMK AO2
Temperature: -8.0°C ( 18°F)
Dewpoint:-18.0°C ( -0°F) [RH = 44%]
Pressure (altimeter):30.07 inches Hg (1018.4 mb)
Winds:from the SSW (210 degrees) at 5 MPH (4 knots; 2.1 m/s)
Visibility:10 or more sm (16+ km)
Ceiling:at least 12,000 feet AGL
Clouds:sky clear below 12,000 feet AGL
QC Flag:automated observation with no human augmentation
Text:KMNH 230212Z AUTO 22005KT 10SM CLR M08/M18 A3007 RMK AO2
Temperature: -8.0°C ( 18°F)
Dewpoint:-18.0°C ( -0°F) [RH = 44%]
Pressure (altimeter):30.07 inches Hg (1018.4 mb)
Winds:from the SW (220 degrees) at 6 MPH (5 knots; 2.6 m/s)
Visibility:10 or more sm (16+ km)
Ceiling:at least 12,000 feet AGL
Clouds:sky clear below 12,000 feet AGL
QC Flag:automated observation with no human augmentation
Text:KMNH 230148Z AUTO 20006KT 10SM CLR M09/M18 A3008 RMK AO2
Temperature: -9.0°C ( 16°F)
Dewpoint:-18.0°C ( -0°F) [RH = 48%]
Pressure (altimeter):30.08 inches Hg (1018.7 mb)
Winds:from the SSW (200 degrees) at 7 MPH (6 knots; 3.1 m/s)
Visibility:10 or more sm (16+ km)
Ceiling:at least 12,000 feet AGL
Clouds:sky clear below 12,000 feet AGL
QC Flag:automated observation with no human augmentation
Text:KMNH 230130Z AUTO 00000KT 10SM CLR M10/M18 A3007 RMK AO2
Temperature:-10.0°C ( 14°F)
Dewpoint:-18.0°C ( -0°F) [RH = 52%]
Pressure (altimeter):30.07 inches Hg (1018.4 mb)
Winds:calm
Visibility:10 or more sm (16+ km)
Ceiling:at least 12,000 feet AGL
Clouds:sky clear below 12,000 feet AGL
QC Flag:automated observation with no human augmentation
Text:KMNH 230112Z AUTO 00000KT 10SM CLR M08/M18 A3007 RMK AO2
Temperature: -8.0°C ( 18°F)
Dewpoint:-18.0°C ( -0°F) [RH = 44%]
Pressure (altimeter):30.07 inches Hg (1018.4 mb)
Winds:calm
Visibility:10 or more sm (16+ km)
Ceiling:at least 12,000 feet AGL
Clouds:sky clear below 12,000 feet AGL
QC Flag:automated observation with no human augmentation
Text:KMNH 230053Z AUTO 30003KT 10SM CLR M10/M18 A3007 RMK AO2
Temperature:-10.0°C ( 14°F)
Dewpoint:-18.0°C ( -0°F) [RH = 52%]
Pressure (altimeter):30.07 inches Hg (1018.4 mb)
Winds:from the WNW (300 degrees) at 3 MPH (3 knots; 1.5 m/s)
Visibility:10 or more sm (16+ km)
Ceiling:at least 12,000 feet AGL
Clouds:sky clear below 12,000 feet AGL
QC Flag:automated observation with no human augmentation
Text:KMNH 230029Z AUTO 27004KT 10SM CLR M07/M18 A3007 RMK AO2
Temperature: -7.0°C ( 19°F)
Dewpoint:-18.0°C ( -0°F) [RH = 41%]
Pressure (altimeter):30.07 inches Hg (1018.4 mb)
Winds:from the W (270 degrees) at 5 MPH (4 knots; 2.1 m/s)
Visibility:10 or more sm (16+ km)
Ceiling:at least 12,000 feet AGL
Clouds:sky clear below 12,000 feet AGL
QC Flag:automated observation with no human augmentation
Text:KMNH 230011Z AUTO 27004KT 10SM CLR M06/M16 A3006 RMK AO2
Temperature: -6.0°C ( 21°F)
Dewpoint:-16.0°C ( 3°F) [RH = 45%]
Pressure (altimeter):30.06 inches Hg (1018.0 mb)
Winds:from the W (270 degrees) at 5 MPH (4 knots; 2.1 m/s)
Visibility:10 or more sm (16+ km)
Ceiling:at least 12,000 feet AGL
Clouds:sky clear below 12,000 feet AGL
QC Flag:automated observation with no human augmentation
Text:KMNH 222348Z AUTO 00000KT 10SM CLR M03/M16 A3006 RMK AO2
Temperature: -3.0°C ( 27°F)
Dewpoint:-16.0°C ( 3°F) [RH = 36%]
Pressure (altimeter):30.06 inches Hg (1018.0 mb)
Winds:calm
Visibility:10 or more sm (16+ km)
Ceiling:at least 12,000 feet AGL
Clouds:sky clear below 12,000 feet AGL
QC Flag:automated observation with no human augmentation
Text:KMNH 222330Z AUTO 32006KT 10SM CLR M02/M15 A3004 RMK AO2
Temperature: -2.0°C ( 28°F)
Dewpoint:-15.0°C ( 5°F) [RH = 36%]
Pressure (altimeter):30.04 inches Hg (1017.4 mb)
Winds:from the NW (320 degrees) at 7 MPH (6 knots; 3.1 m/s)
Visibility:10 or more sm (16+ km)
Ceiling:at least 12,000 feet AGL
Clouds:sky clear below 12,000 feet AGL
QC Flag:automated observation with no human augmentation
Text:KMNH 222312Z AUTO 29005KT 10SM CLR M03/M15 A3003 RMK AO2
Temperature: -3.0°C ( 27°F)
Dewpoint:-15.0°C ( 5°F) [RH = 39%]
Pressure (altimeter):30.03 inches Hg (1017.0 mb)
Winds:from the WNW (290 degrees) at 6 MPH (5 knots; 2.6 m/s)
Visibility:10 or more sm (16+ km)
Ceiling:at least 12,000 feet AGL
Clouds:sky clear below 12,000 feet AGL
QC Flag:automated observation with no human augmentation
Text:KMNH 222248Z AUTO 33006KT 10SM CLR M01/M15 A3002 RMK AO2
Temperature: -1.0°C ( 30°F)
Dewpoint:-15.0°C ( 5°F) [RH = 34%]
Pressure (altimeter):30.02 inches Hg (1016.7 mb)
Winds:from the NNW (330 degrees) at 7 MPH (6 knots; 3.1 m/s)
Visibility:10 or more sm (16+ km)
Ceiling:at least 12,000 feet AGL
Clouds:sky clear below 12,000 feet AGL
QC Flag:automated observation with no human augmentation
Text:KMNH 222230Z AUTO 32007KT 10SM CLR 00/M15 A3002 RMK AO2
Temperature: 0.0°C ( 32°F)
Dewpoint:-15.0°C ( 5°F) [RH = 31%]
Pressure (altimeter):30.02 inches Hg (1016.7 mb)
Winds:from the NW (320 degrees) at 8 MPH (7 knots; 3.6 m/s)
Visibility:10 or more sm (16+ km)
Ceiling:at least 12,000 feet AGL
Clouds:sky clear below 12,000 feet AGL
QC Flag:automated observation with no human augmentation
Text:KMNH 222212Z AUTO 33007KT 10SM CLR 00/M14 A3001 RMK AO2
Temperature: 0.0°C ( 32°F)
Dewpoint:-14.0°C ( 7°F) [RH = 34%]
Pressure (altimeter):30.01 inches Hg (1016.3 mb)
Winds:from the NNW (330 degrees) at 8 MPH (7 knots; 3.6 m/s)
Visibility:10 or more sm (16+ km)
Ceiling:at least 12,000 feet AGL
Clouds:sky clear below 12,000 feet AGL
QC Flag:automated observation with no human augmentation
Text:KMNH 222148Z AUTO 33008KT 10SM CLR 00/M14 A3001 RMK AO2
Temperature: 0.0°C ( 32°F)
Dewpoint:-14.0°C ( 7°F) [RH = 34%]
Pressure (altimeter):30.01 inches Hg (1016.3 mb)
Winds:from the NNW (330 degrees) at 9 MPH (8 knots; 4.1 m/s)
Visibility:10 or more sm (16+ km)
Ceiling:at least 12,000 feet AGL
Clouds:sky clear below 12,000 feet AGL
QC Flag:automated observation with no human augmentation
Text:KMNH 222130Z AUTO 33010KT 10SM CLR 00/M14 A3000 RMK AO2
Temperature: 0.0°C ( 32°F)
Dewpoint:-14.0°C ( 7°F) [RH = 34%]
Pressure (altimeter):30.00 inches Hg (1016.0 mb)
Winds:from the NNW (330 degrees) at 12 MPH (10 knots; 5.1 m/s)
Visibility:10 or more sm (16+ km)
Ceiling:at least 12,000 feet AGL
Clouds:sky clear below 12,000 feet AGL
QC Flag:automated observation with no human augmentation
Text:KMNH 222112Z AUTO 33013KT 10SM CLR 00/M15 A3000 RMK AO2
Temperature: 0.0°C ( 32°F)
Dewpoint:-15.0°C ( 5°F) [RH = 31%]
Pressure (altimeter):30.00 inches Hg (1016.0 mb)
Winds:from the NNW (330 degrees) at 15 MPH (13 knots; 6.7 m/s)
Visibility:10 or more sm (16+ km)
Ceiling:at least 12,000 feet AGL
Clouds:sky clear below 12,000 feet AGL
QC Flag:automated observation with no human augmentation
Text:KMNH 221953Z AUTO 31015KT 10SM CLR 00/M13 A2999 RMK AO2
Temperature: 0.0°C ( 32°F)
Dewpoint:-13.0°C ( 9°F) [RH = 37%]
Pressure (altimeter):29.99 inches Hg (1015.7 mb)
Winds:from the NW (310 degrees) at 17 MPH (15 knots; 7.7 m/s)
Visibility:10 or more sm (16+ km)
Ceiling:at least 12,000 feet AGL
Clouds:sky clear below 12,000 feet AGL
QC Flag:automated observation with no human augmentation
Text:KMNH 221930Z AUTO 31015G20KT 10SM CLR M01/M13 A2999 RMK AO2
Temperature: -1.0°C ( 30°F)
Dewpoint:-13.0°C ( 9°F) [RH = 40%]
Pressure (altimeter):29.99 inches Hg (1015.7 mb)
Winds:from the NW (310 degrees) at 17 MPH (15 knots; 7.7 m/s) gusting to 23 MPH (20 knots; 10.3 m/s)
Visibility:10 or more sm (16+ km)
Ceiling:at least 12,000 feet AGL
Clouds:sky clear below 12,000 feet AGL
QC Flag:automated observation with no human augmentation
Text:KMNH 221912Z AUTO 31018G22KT 10SM CLR M01/M13 A3000 RMK AO2
Temperature: -1.0°C ( 30°F)
Dewpoint:-13.0°C ( 9°F) [RH = 40%]
Pressure (altimeter):30.00 inches Hg (1016.0 mb)
Winds:from the NW (310 degrees) at 21 MPH (18 knots; 9.3 m/s) gusting to 25 MPH (22 knots; 11.3 m/s)
Visibility:10 or more sm (16+ km)
Ceiling:at least 12,000 feet AGL
Clouds:sky clear below 12,000 feet AGL
QC Flag:automated observation with no human augmentation
Text:KMNH 221854Z AUTO 31017G20KT 10SM CLR M01/M14 A3000 RMK AO2
Temperature: -1.0°C ( 30°F)
Dewpoint:-14.0°C ( 7°F) [RH = 37%]
Pressure (altimeter):30.00 inches Hg (1016.0 mb)
Winds:from the NW (310 degrees) at 20 MPH (17 knots; 8.7 m/s) gusting to 23 MPH (20 knots; 10.3 m/s)
Visibility:10 or more sm (16+ km)
Ceiling:at least 12,000 feet AGL
Clouds:sky clear below 12,000 feet AGL
QC Flag:automated observation with no human augmentation
Text:KMNH 221830Z AUTO 31015KT 10SM CLR M01/M13 A3001 RMK AO2
Temperature: -1.0°C ( 30°F)
Dewpoint:-13.0°C ( 9°F) [RH = 40%]
Pressure (altimeter):30.01 inches Hg (1016.3 mb)
Winds:from the NW (310 degrees) at 17 MPH (15 knots; 7.7 m/s)
Visibility:10 or more sm (16+ km)
Ceiling:at least 12,000 feet AGL
Clouds:sky clear below 12,000 feet AGL
QC Flag:automated observation with no human augmentation
Text:KMNH 221812Z AUTO 30014KT 10SM CLR M02/M13 A3001 RMK AO2
Temperature: -2.0°C ( 28°F)
Dewpoint:-13.0°C ( 9°F) [RH = 43%]
Pressure (altimeter):30.01 inches Hg (1016.3 mb)
Winds:from the WNW (300 degrees) at 16 MPH (14 knots; 7.2 m/s)
Visibility:10 or more sm (16+ km)
Ceiling:at least 12,000 feet AGL
Clouds:sky clear below 12,000 feet AGL
QC Flag:automated observation with no human augmentation
Text:KMNH 221754Z AUTO 30011KT 10SM CLR M02/M13 A3001 RMK AO2
Temperature: -2.0°C ( 28°F)
Dewpoint:-13.0°C ( 9°F) [RH = 43%]
Pressure (altimeter):30.01 inches Hg (1016.3 mb)
Winds:from the WNW (300 degrees) at 13 MPH (11 knots; 5.7 m/s)
Visibility:10 or more sm (16+ km)
Ceiling:at least 12,000 feet AGL
Clouds:sky clear below 12,000 feet AGL
QC Flag:automated observation with no human augmentation
Text:KMNH 221730Z AUTO 30011KT 10SM CLR M03/M13 A3001 RMK AO2
Temperature: -3.0°C ( 27°F)
Dewpoint:-13.0°C ( 9°F) [RH = 46%]
Pressure (altimeter):30.01 inches Hg (1016.3 mb)
Winds:from the WNW (300 degrees) at 13 MPH (11 knots; 5.7 m/s)
Visibility:10 or more sm (16+ km)
Ceiling:at least 12,000 feet AGL
Clouds:sky clear below 12,000 feet AGL
QC Flag:automated observation with no human augmentation
Text:KMNH 221712Z AUTO 29010KT 10SM CLR M05/M13 A3001 RMK AO2
Temperature: -5.0°C ( 23°F)
Dewpoint:-13.0°C ( 9°F) [RH = 53%]
Pressure (altimeter):30.01 inches Hg (1016.3 mb)
Winds:from the WNW (290 degrees) at 12 MPH (10 knots; 5.1 m/s)
Visibility:10 or more sm (16+ km)
Ceiling:at least 12,000 feet AGL
Clouds:sky clear below 12,000 feet AGL
QC Flag:automated observation with no human augmentation
Text:KMNH 221654Z AUTO 29011KT 10SM CLR M05/M15 A3001 RMK AO2
Temperature: -5.0°C ( 23°F)
Dewpoint:-15.0°C ( 5°F) [RH = 45%]
Pressure (altimeter):30.01 inches Hg (1016.3 mb)
Winds:from the WNW (290 degrees) at 13 MPH (11 knots; 5.7 m/s)
Visibility:10 or more sm (16+ km)
Ceiling:at least 12,000 feet AGL
Clouds:sky clear below 12,000 feet AGL
QC Flag:automated observation with no human augmentation
Text:KMNH 221630Z AUTO 29013KT 10SM CLR M06/M15 A3001 RMK AO2
Temperature: -6.0°C ( 21°F)
Dewpoint:-15.0°C ( 5°F) [RH = 49%]
Pressure (altimeter):30.01 inches Hg (1016.3 mb)
Winds:from the WNW (290 degrees) at 15 MPH (13 knots; 6.7 m/s)
Visibility:10 or more sm (16+ km)
Ceiling:at least 12,000 feet AGL
Clouds:sky clear below 12,000 feet AGL
QC Flag:automated observation with no human augmentation
Text:KMNH 221612Z AUTO 29011KT 10SM CLR M07/M15 A3000 RMK AO2
Temperature: -7.0°C ( 19°F)
Dewpoint:-15.0°C ( 5°F) [RH = 53%]
Pressure (altimeter):30.00 inches Hg (1016.0 mb)
Winds:from the WNW (290 degrees) at 13 MPH (11 knots; 5.7 m/s)
Visibility:10 or more sm (16+ km)
Ceiling:at least 12,000 feet AGL
Clouds:sky clear below 12,000 feet AGL
QC Flag:automated observation with no human augmentation
Text:KMNH 221553Z AUTO 29012KT 10SM CLR M08/M16 A2999 RMK AO2
Temperature: -8.0°C ( 18°F)
Dewpoint:-16.0°C ( 3°F) [RH = 53%]
Pressure (altimeter):29.99 inches Hg (1015.7 mb)
Winds:from the WNW (290 degrees) at 14 MPH (12 knots; 6.2 m/s)
Visibility:10 or more sm (16+ km)
Ceiling:at least 12,000 feet AGL
Clouds:sky clear below 12,000 feet AGL
QC Flag:automated observation with no human augmentation
Text:KMNH 221530Z AUTO 29012KT 10SM CLR M10/M17 A2998 RMK AO2
Temperature:-10.0°C ( 14°F)
Dewpoint:-17.0°C ( 1°F) [RH = 57%]
Pressure (altimeter):29.98 inches Hg (1015.3 mb)
Winds:from the WNW (290 degrees) at 14 MPH (12 knots; 6.2 m/s)
Visibility:10 or more sm (16+ km)
Ceiling:at least 12,000 feet AGL
Clouds:sky clear below 12,000 feet AGL
QC Flag:automated observation with no human augmentation
Text:KMNH 221512Z AUTO 28011KT 10SM CLR M11/M17 A2998 RMK AO2
Temperature:-11.0°C ( 12°F)
Dewpoint:-17.0°C ( 1°F) [RH = 61%]
Pressure (altimeter):29.98 inches Hg (1015.3 mb)
Winds:from the W (280 degrees) at 13 MPH (11 knots; 5.7 m/s)
Visibility:10 or more sm (16+ km)
Ceiling:at least 12,000 feet AGL
Clouds:sky clear below 12,000 feet AGL
QC Flag:automated observation with no human augmentation
Text:KMNH 221454Z AUTO 28011KT 10SM CLR M11/M17 A2997 RMK AO2
Temperature:-11.0°C ( 12°F)
Dewpoint:-17.0°C ( 1°F) [RH = 61%]
Pressure (altimeter):29.97 inches Hg (1015.0 mb)
Winds:from the W (280 degrees) at 13 MPH (11 knots; 5.7 m/s)
Visibility:10 or more sm (16+ km)
Ceiling:at least 12,000 feet AGL
Clouds:sky clear below 12,000 feet AGL
QC Flag:automated observation with no human augmentation
Text:KMNH 221430Z AUTO 29011KT 10SM CLR M12/M18 A2996 RMK AO2
Temperature:-12.0°C ( 10°F)
Dewpoint:-18.0°C ( -0°F) [RH = 61%]
Pressure (altimeter):29.96 inches Hg (1014.6 mb)
Winds:from the WNW (290 degrees) at 13 MPH (11 knots; 5.7 m/s)
Visibility:10 or more sm (16+ km)
Ceiling:at least 12,000 feet AGL
Clouds:sky clear below 12,000 feet AGL
QC Flag:automated observation with no human augmentation
Text:KMNH 221412Z AUTO 29011KT 10SM CLR M13/M18 A2996 RMK AO2
Temperature:-13.0°C ( 9°F)
Dewpoint:-18.0°C ( -0°F) [RH = 66%]
Pressure (altimeter):29.96 inches Hg (1014.6 mb)
Winds:from the WNW (290 degrees) at 13 MPH (11 knots; 5.7 m/s)
Visibility:10 or more sm (16+ km)
Ceiling:at least 12,000 feet AGL
Clouds:sky clear below 12,000 feet AGL
QC Flag:automated observation with no human augmentation
Text:KMNH 221354Z AUTO 30011KT 10SM CLR M13/M18 A2996 RMK AO2
Temperature:-13.0°C ( 9°F)
Dewpoint:-18.0°C ( -0°F) [RH = 66%]
Pressure (altimeter):29.96 inches Hg (1014.6 mb)
Winds:from the WNW (300 degrees) at 13 MPH (11 knots; 5.7 m/s)
Visibility:10 or more sm (16+ km)
Ceiling:at least 12,000 feet AGL
Clouds:sky clear below 12,000 feet AGL
QC Flag:automated observation with no human augmentation
Text:KMNH 221330Z AUTO 29012KT 10SM CLR M13/M18 A2995 RMK AO2
Temperature:-13.0°C ( 9°F)
Dewpoint:-18.0°C ( -0°F) [RH = 66%]
Pressure (altimeter):29.95 inches Hg (1014.3 mb)
Winds:from the WNW (290 degrees) at 14 MPH (12 knots; 6.2 m/s)
Visibility:10 or more sm (16+ km)
Ceiling:at least 12,000 feet AGL
Clouds:sky clear below 12,000 feet AGL
QC Flag:automated observation with no human augmentation
Text:KMNH 221312Z AUTO 29011KT 10SM CLR M14/M18 A2995 RMK AO2
Temperature:-14.0°C ( 7°F)
Dewpoint:-18.0°C ( -0°F) [RH = 72%]
Pressure (altimeter):29.95 inches Hg (1014.3 mb)
Winds:from the WNW (290 degrees) at 13 MPH (11 knots; 5.7 m/s)
Visibility:10 or more sm (16+ km)
Ceiling:at least 12,000 feet AGL
Clouds:sky clear below 12,000 feet AGL
QC Flag:automated observation with no human augmentation
Text:KMNH 221254Z AUTO 30012KT 10SM CLR M12/M17 A2995 RMK AO2
Temperature:-12.0°C ( 10°F)
Dewpoint:-17.0°C ( 1°F) [RH = 66%]
Pressure (altimeter):29.95 inches Hg (1014.3 mb)
Winds:from the WNW (300 degrees) at 14 MPH (12 knots; 6.2 m/s)
Visibility:10 or more sm (16+ km)
Ceiling:at least 12,000 feet AGL
Clouds:sky clear below 12,000 feet AGL
QC Flag:automated observation with no human augmentation
Text:KMNH 221230Z AUTO 31012KT 10SM CLR M12/M17 A2995 RMK AO2
Temperature:-12.0°C ( 10°F)
Dewpoint:-17.0°C ( 1°F) [RH = 66%]
Pressure (altimeter):29.95 inches Hg (1014.3 mb)
Winds:from the NW (310 degrees) at 14 MPH (12 knots; 6.2 m/s)
Visibility:10 or more sm (16+ km)
Ceiling:at least 12,000 feet AGL
Clouds:sky clear below 12,000 feet AGL
QC Flag:automated observation with no human augmentation
Text:KMNH 221212Z AUTO 30011KT 10SM CLR M12/M17 A2994 RMK AO2
Temperature:-12.0°C ( 10°F)
Dewpoint:-17.0°C ( 1°F) [RH = 66%]
Pressure (altimeter):29.94 inches Hg (1014.0 mb)
Winds:from the WNW (300 degrees) at 13 MPH (11 knots; 5.7 m/s)
Visibility:10 or more sm (16+ km)
Ceiling:at least 12,000 feet AGL
Clouds:sky clear below 12,000 feet AGL
QC Flag:automated observation with no human augmentation
Text:KMNH 221154Z AUTO 30012KT 10SM CLR M12/M17 A2993 RMK AO2
Temperature:-12.0°C ( 10°F)
Dewpoint:-17.0°C ( 1°F) [RH = 66%]
Pressure (altimeter):29.93 inches Hg (1013.6 mb)
Winds:from the WNW (300 degrees) at 14 MPH (12 knots; 6.2 m/s)
Visibility:10 or more sm (16+ km)
Ceiling:at least 12,000 feet AGL
Clouds:sky clear below 12,000 feet AGL
QC Flag:automated observation with no human augmentation
Text:KMNH 221130Z AUTO 30011KT 10SM CLR M14/M17 A2993 RMK AO2
Temperature:-14.0°C ( 7°F)
Dewpoint:-17.0°C ( 1°F) [RH = 78%]
Pressure (altimeter):29.93 inches Hg (1013.6 mb)
Winds:from the WNW (300 degrees) at 13 MPH (11 knots; 5.7 m/s)
Visibility:10 or more sm (16+ km)
Ceiling:at least 12,000 feet AGL
Clouds:sky clear below 12,000 feet AGL
QC Flag:automated observation with no human augmentation
Text:KMNH 221112Z AUTO 30011KT 10SM CLR M13/M16 A2993 RMK AO2
Temperature:-13.0°C ( 9°F)
Dewpoint:-16.0°C ( 3°F) [RH = 78%]
Pressure (altimeter):29.93 inches Hg (1013.6 mb)
Winds:from the WNW (300 degrees) at 13 MPH (11 knots; 5.7 m/s)
Visibility:10 or more sm (16+ km)
Ceiling:at least 12,000 feet AGL
Clouds:sky clear below 12,000 feet AGL
QC Flag:automated observation with no human augmentation
Text:KMNH 221054Z AUTO 29011KT 10SM CLR M13/M16 A2993 RMK AO2
Temperature:-13.0°C ( 9°F)
Dewpoint:-16.0°C ( 3°F) [RH = 78%]
Pressure (altimeter):29.93 inches Hg (1013.6 mb)
Winds:from the WNW (290 degrees) at 13 MPH (11 knots; 5.7 m/s)
Visibility:10 or more sm (16+ km)
Ceiling:at least 12,000 feet AGL
Clouds:sky clear below 12,000 feet AGL
QC Flag:automated observation with no human augmentation
Text:KMNH 221030Z AUTO 30013KT 10SM SCT110 M11/M14 A2991 RMK AO2
Temperature:-11.0°C ( 12°F)
Dewpoint:-14.0°C ( 7°F) [RH = 78%]
Pressure (altimeter):29.91 inches Hg (1013.0 mb)
Winds:from the WNW (300 degrees) at 15 MPH (13 knots; 6.7 m/s)
Visibility:10 or more sm (16+ km)
Ceiling:at least 12,000 feet AGL
Clouds: scattered clouds at 11000 feet AGL
QC Flag:automated observation with no human augmentation
Text:KMNH 221012Z AUTO 30013KT 10SM SCT110 M11/M13 A2991 RMK AO2
Temperature:-11.0°C ( 12°F)
Dewpoint:-13.0°C ( 9°F) [RH = 85%]
Pressure (altimeter):29.91 inches Hg (1013.0 mb)
Winds:from the WNW (300 degrees) at 15 MPH (13 knots; 6.7 m/s)
Visibility:10 or more sm (16+ km)
Ceiling:at least 12,000 feet AGL
Clouds: scattered clouds at 11000 feet AGL
QC Flag:automated observation with no human augmentation
Text:KMNH 220953Z AUTO 30013KT 10SM SCT090 M11/M13 A2991 RMK AO2
Temperature:-11.0°C ( 12°F)
Dewpoint:-13.0°C ( 9°F) [RH = 85%]
Pressure (altimeter):29.91 inches Hg (1013.0 mb)
Winds:from the WNW (300 degrees) at 15 MPH (13 knots; 6.7 m/s)
Visibility:10 or more sm (16+ km)
Ceiling:at least 12,000 feet AGL
Clouds: scattered clouds at 9000 feet AGL
QC Flag:automated observation with no human augmentation
Text:KMNH 220929Z AUTO 29012KT 10SM SCT065 OVC100 M10/M12 A2991 RMK AO2
Temperature:-10.0°C ( 14°F)
Dewpoint:-12.0°C ( 10°F) [RH = 85%]
Pressure (altimeter):29.91 inches Hg (1013.0 mb)
Winds:from the WNW (290 degrees) at 14 MPH (12 knots; 6.2 m/s)
Visibility:10 or more sm (16+ km)
Ceiling:10000 feet AGL
Clouds: scattered clouds at 6500 feet AGL, overcast cloud deck at 10000 feet AGL
QC Flag:automated observation with no human augmentation
Text:KMNH 220911Z AUTO 29011KT 10SM SCT042 SCT049 OVC065 M10/M11 A2991 RMK AO2
Temperature:-10.0°C ( 14°F)
Dewpoint:-11.0°C ( 12°F) [RH = 92%]
Pressure (altimeter):29.91 inches Hg (1013.0 mb)
Winds:from the WNW (290 degrees) at 13 MPH (11 knots; 5.7 m/s)
Visibility:10 or more sm (16+ km)
Ceiling:6500 feet AGL
Clouds: scattered clouds at 4200 feet AGL, scattered clouds at 4900 feet AGL, overcast cloud deck at 6500 feet AGL
QC Flag:automated observation with no human augmentation
Text:KMNH 220849Z AUTO 29012KT 10SM BKN043 OVC049 M09/M11 A2990 RMK AO2
Temperature: -9.0°C ( 16°F)
Dewpoint:-11.0°C ( 12°F) [RH = 85%]
Pressure (altimeter):29.90 inches Hg (1012.6 mb)
Winds:from the WNW (290 degrees) at 14 MPH (12 knots; 6.2 m/s)
Visibility:10 or more sm (16+ km)
Ceiling:4300 feet AGL
Clouds: broken clouds at 4300 feet AGL, overcast cloud deck at 4900 feet AGL
QC Flag:automated observation with no human augmentation
Text:KMNH 220831Z AUTO 30013KT 10SM SCT043 OVC049 M09/M11 A2990 RMK AO2
Temperature: -9.0°C ( 16°F)
Dewpoint:-11.0°C ( 12°F) [RH = 85%]
Pressure (altimeter):29.90 inches Hg (1012.6 mb)
Winds:from the WNW (300 degrees) at 15 MPH (13 knots; 6.7 m/s)
Visibility:10 or more sm (16+ km)
Ceiling:4900 feet AGL
Clouds: scattered clouds at 4300 feet AGL, overcast cloud deck at 4900 feet AGL
QC Flag:automated observation with no human augmentation
Text:KMNH 220813Z AUTO 32011KT 10SM BKN041 OVC049 M08/M11 A2989 RMK AO2
Temperature: -8.0°C ( 18°F)
Dewpoint:-11.0°C ( 12°F) [RH = 79%]
Pressure (altimeter):29.89 inches Hg (1012.3 mb)
Winds:from the NW (320 degrees) at 13 MPH (11 knots; 5.7 m/s)
Visibility:10 or more sm (16+ km)
Ceiling:4100 feet AGL
Clouds: broken clouds at 4100 feet AGL, overcast cloud deck at 4900 feet AGL
QC Flag:automated observation with no human augmentation
Text:KMNH 220754Z AUTO 32013KT 10SM SCT029 BKN039 OVC046 M09/M10 A2989 RMK AO2
Temperature: -9.0°C ( 16°F)
Dewpoint:-10.0°C ( 14°F) [RH = 92%]
Pressure (altimeter):29.89 inches Hg (1012.3 mb)
Winds:from the NW (320 degrees) at 15 MPH (13 knots; 6.7 m/s)
Visibility:10 or more sm (16+ km)
Ceiling:3900 feet AGL
Clouds: scattered clouds at 2900 feet AGL, broken clouds at 3900 feet AGL, overcast cloud deck at 4600 feet AGL
QC Flag:automated observation with no human augmentation
Text:KMNH 220730Z AUTO 31012KT 7SM SCT013 BKN018 OVC032 M09/M11 A2989 RMK AO2
Temperature: -9.0°C ( 16°F)
Dewpoint:-11.0°C ( 12°F) [RH = 85%]
Pressure (altimeter):29.89 inches Hg (1012.3 mb)
Winds:from the NW (310 degrees) at 14 MPH (12 knots; 6.2 m/s)
Visibility: 7 sm ( 11 km)
Ceiling:1800 feet AGL
Clouds: scattered clouds at 1300 feet AGL, broken clouds at 1800 feet AGL, overcast cloud deck at 3200 feet AGL
QC Flag:automated observation with no human augmentation
Text:KMNH 220712Z AUTO 31013G19KT 7SM -SN SCT010 BKN017 OVC035 M09/M10 A2989 RMK AO2
Temperature: -9.0°C ( 16°F)
Dewpoint:-10.0°C ( 14°F) [RH = 92%]
Pressure (altimeter):29.89 inches Hg (1012.3 mb)
Winds:from the NW (310 degrees) at 15 MPH (13 knots; 6.7 m/s) gusting to 22 MPH (19 knots; 9.8 m/s)
Visibility: 7 sm ( 11 km)
Ceiling:1700 feet AGL
Clouds: scattered clouds at 1000 feet AGL, broken clouds at 1700 feet AGL, overcast cloud deck at 3500 feet AGL
Weather:-SN (light snow)
QC Flag:automated observation with no human augmentation
Text:KMNH 220652Z AUTO 31015KT 7SM -SN BKN009 BKN013 OVC037 M09/M10 A2989 RMK AO2
Temperature: -9.0°C ( 16°F)
Dewpoint:-10.0°C ( 14°F) [RH = 92%]
Pressure (altimeter):29.89 inches Hg (1012.3 mb)
Winds:from the NW (310 degrees) at 17 MPH (15 knots; 7.7 m/s)
Visibility: 7 sm ( 11 km)
Ceiling:900 feet AGL
Clouds: broken clouds at 900 feet AGL, broken clouds at 1300 feet AGL, overcast cloud deck at 3700 feet AGL
Weather:-SN (light snow)
QC Flag:automated observation with no human augmentation
Text:KMNH 220629Z AUTO 32016G22KT 3SM -SN BKN009 OVC013 M09/M10 A2989 RMK AO2
Temperature: -9.0°C ( 16°F)
Dewpoint:-10.0°C ( 14°F) [RH = 92%]
Pressure (altimeter):29.89 inches Hg (1012.3 mb)
Winds:from the NW (320 degrees) at 18 MPH (16 knots; 8.2 m/s) gusting to 25 MPH (22 knots; 11.3 m/s)
Visibility: 3 sm ( 5 km)
Ceiling:900 feet AGL
Clouds: broken clouds at 900 feet AGL, overcast cloud deck at 1300 feet AGL
Weather:-SN (light snow)
QC Flag:automated observation with no human augmentation
Text:KMNH 220611Z AUTO 32014G21KT 2SM -SN OVC007 M09/M10 A2989 RMK AO2
Temperature: -9.0°C ( 16°F)
Dewpoint:-10.0°C ( 14°F) [RH = 92%]
Pressure (altimeter):29.89 inches Hg (1012.3 mb)
Winds:from the NW (320 degrees) at 16 MPH (14 knots; 7.2 m/s) gusting to 24 MPH (21 knots; 10.8 m/s)
Visibility: 2.00 sm ( 3.22 km)
Ceiling:700 feet AGL
Clouds: overcast cloud deck at 700 feet AGL
Weather:-SN (light snow)
QC Flag:automated observation with no human augmentation
Text:KMNH 220553Z AUTO 33014G18KT 4SM -SN BKN009 BKN014 OVC027 M09/M10 A2990 RMK AO2
Temperature: -9.0°C ( 16°F)
Dewpoint:-10.0°C ( 14°F) [RH = 92%]
Pressure (altimeter):29.90 inches Hg (1012.6 mb)
Winds:from the NNW (330 degrees) at 16 MPH (14 knots; 7.2 m/s) gusting to 21 MPH (18 knots; 9.3 m/s)
Visibility: 4 sm ( 6 km)
Ceiling:900 feet AGL
Clouds: broken clouds at 900 feet AGL, broken clouds at 1400 feet AGL, overcast cloud deck at 2700 feet AGL
Weather:-SN (light snow)
QC Flag:automated observation with no human augmentation
Text:KMNH 220529Z AUTO 33015G22KT 3SM -SN BKN007 OVC017 M09/M11 A2989 RMK AO2
Temperature: -9.0°C ( 16°F)
Dewpoint:-11.0°C ( 12°F) [RH = 85%]
Pressure (altimeter):29.89 inches Hg (1012.3 mb)
Winds:from the NNW (330 degrees) at 17 MPH (15 knots; 7.7 m/s) gusting to 25 MPH (22 knots; 11.3 m/s)
Visibility: 3 sm ( 5 km)
Ceiling:700 feet AGL
Clouds: broken clouds at 700 feet AGL, overcast cloud deck at 1700 feet AGL
Weather:-SN (light snow)
QC Flag:automated observation with no human augmentation
Text:KMNH 220511Z AUTO 33013G20KT 4SM -SN SCT009 BKN018 OVC031 M09/M11 A2989 RMK AO2
Temperature: -9.0°C ( 16°F)
Dewpoint:-11.0°C ( 12°F) [RH = 85%]
Pressure (altimeter):29.89 inches Hg (1012.3 mb)
Winds:from the NNW (330 degrees) at 15 MPH (13 knots; 6.7 m/s) gusting to 23 MPH (20 knots; 10.3 m/s)
Visibility: 4 sm ( 6 km)
Ceiling:1800 feet AGL
Clouds: scattered clouds at 900 feet AGL, broken clouds at 1800 feet AGL, overcast cloud deck at 3100 feet AGL
Weather:-SN (light snow)
QC Flag:automated observation with no human augmentation
Text:KMNH 220454Z AUTO 33014G20KT 4SM -SN SCT017 BKN023 OVC039 M09/M11 A2988 RMK AO2
Temperature: -9.0°C ( 16°F)
Dewpoint:-11.0°C ( 12°F) [RH = 85%]
Pressure (altimeter):29.88 inches Hg (1011.9 mb)
Winds:from the NNW (330 degrees) at 16 MPH (14 knots; 7.2 m/s) gusting to 23 MPH (20 knots; 10.3 m/s)
Visibility: 4 sm ( 6 km)
Ceiling:2300 feet AGL
Clouds: scattered clouds at 1700 feet AGL, broken clouds at 2300 feet AGL, overcast cloud deck at 3900 feet AGL
Weather:-SN (light snow)
QC Flag:automated observation with no human augmentation
Text:KMNH 220430Z AUTO 33013G21KT 3SM -SN BKN011 BKN018 OVC038 M09/M11 A2988 RMK AO2
Temperature: -9.0°C ( 16°F)
Dewpoint:-11.0°C ( 12°F) [RH = 85%]
Pressure (altimeter):29.88 inches Hg (1011.9 mb)
Winds:from the NNW (330 degrees) at 15 MPH (13 knots; 6.7 m/s) gusting to 24 MPH (21 knots; 10.8 m/s)
Visibility: 3 sm ( 5 km)
Ceiling:1100 feet AGL
Clouds: broken clouds at 1100 feet AGL, broken clouds at 1800 feet AGL, overcast cloud deck at 3800 feet AGL
Weather:-SN (light snow)
QC Flag:automated observation with no human augmentation
Text:KMNH 220412Z AUTO 34019G25KT 3SM -SN BKN015 BKN031 OVC070 M09/M11 A2988 RMK AO2
Temperature: -9.0°C ( 16°F)
Dewpoint:-11.0°C ( 12°F) [RH = 85%]
Pressure (altimeter):29.88 inches Hg (1011.9 mb)
Winds:from the NNW (340 degrees) at 22 MPH (19 knots; 9.8 m/s) gusting to 29 MPH (25 knots; 12.9 m/s)
Visibility: 3 sm ( 5 km)
Ceiling:1500 feet AGL
Clouds: broken clouds at 1500 feet AGL, broken clouds at 3100 feet AGL, overcast cloud deck at 7000 feet AGL
Weather:-SN (light snow)
QC Flag:automated observation with no human augmentation
Text:KMNH 220354Z AUTO 34019G28KT 7SM SCT018 BKN028 OVC070 M09/M11 A2988 RMK AO2
Temperature: -9.0°C ( 16°F)
Dewpoint:-11.0°C ( 12°F) [RH = 85%]
Pressure (altimeter):29.88 inches Hg (1011.9 mb)
Winds:from the NNW (340 degrees) at 22 MPH (19 knots; 9.8 m/s) gusting to 32 MPH (28 knots; 14.4 m/s)
Visibility: 7 sm ( 11 km)
Ceiling:2800 feet AGL
Clouds: scattered clouds at 1800 feet AGL, broken clouds at 2800 feet AGL, overcast cloud deck at 7000 feet AGL
QC Flag:automated observation with no human augmentation
Text:KMNH 220330Z AUTO 34016G25KT 7SM SCT033 BKN041 OVC047 M09/M11 A2988 RMK AO2
Temperature: -9.0°C ( 16°F)
Dewpoint:-11.0°C ( 12°F) [RH = 85%]
Pressure (altimeter):29.88 inches Hg (1011.9 mb)
Winds:from the NNW (340 degrees) at 18 MPH (16 knots; 8.2 m/s) gusting to 29 MPH (25 knots; 12.9 m/s)
Visibility: 7 sm ( 11 km)
Ceiling:4100 feet AGL
Clouds: scattered clouds at 3300 feet AGL, broken clouds at 4100 feet AGL, overcast cloud deck at 4700 feet AGL
QC Flag:automated observation with no human augmentation
Text:KMNH 220312Z AUTO 34020G28KT 5SM BR SCT011 BKN036 OVC043 M09/M11 A2987 RMK AO2
Temperature: -9.0°C ( 16°F)
Dewpoint:-11.0°C ( 12°F) [RH = 85%]
Pressure (altimeter):29.87 inches Hg (1011.6 mb)
Winds:from the NNW (340 degrees) at 23 MPH (20 knots; 10.3 m/s) gusting to 32 MPH (28 knots; 14.4 m/s)
Visibility: 5 sm ( 8 km)
Ceiling:3600 feet AGL
Clouds: scattered clouds at 1100 feet AGL, broken clouds at 3600 feet AGL, overcast cloud deck at 4300 feet AGL
Weather:BR (mist)
QC Flag:automated observation with no human augmentation
Text:KMNH 220254Z AUTO 34020G27KT 4SM BR SCT011 BKN020 OVC033 M09/M10 A2987 RMK AO2
Temperature: -9.0°C ( 16°F)
Dewpoint:-10.0°C ( 14°F) [RH = 92%]
Pressure (altimeter):29.87 inches Hg (1011.6 mb)
Winds:from the NNW (340 degrees) at 23 MPH (20 knots; 10.3 m/s) gusting to 31 MPH (27 knots; 13.9 m/s)
Visibility: 4 sm ( 6 km)
Ceiling:2000 feet AGL
Clouds: scattered clouds at 1100 feet AGL, broken clouds at 2000 feet AGL, overcast cloud deck at 3300 feet AGL
Weather:BR (mist)
QC Flag:automated observation with no human augmentation
Text:KMNH 220230Z AUTO 34022G30KT 2 1/2SM -SN OVC012 M08/M10 A2987 RMK AO2
Temperature: -8.0°C ( 18°F)
Dewpoint:-10.0°C ( 14°F) [RH = 85%]
Pressure (altimeter):29.87 inches Hg (1011.6 mb)
Winds:from the NNW (340 degrees) at 25 MPH (22 knots; 11.3 m/s) gusting to 34 MPH (30 knots; 15.4 m/s)
Visibility: 2.50 sm ( 4.02 km)
Ceiling:1200 feet AGL
Clouds: overcast cloud deck at 1200 feet AGL
Weather:-SN (light snow)
QC Flag:automated observation with no human augmentation
Text:KMNH 220212Z AUTO 35020G29KT 2SM -SN OVC013 M08/M10 A2987 RMK AO2 VIS 1 3/4V3
Temperature: -8.0°C ( 18°F)
Dewpoint:-10.0°C ( 14°F) [RH = 85%]
Pressure (altimeter):29.87 inches Hg (1011.6 mb)
Winds:from the N (350 degrees) at 23 MPH (20 knots; 10.3 m/s) gusting to 33 MPH (29 knots; 14.9 m/s)
Visibility: 2.00 sm ( 3.22 km)
Ceiling:1300 feet AGL
Clouds: overcast cloud deck at 1300 feet AGL
Weather:-SN (light snow)
QC Flag:automated observation with no human augmentation